Time;durP1;ratioP1;P1;durP2;ratioP2;P2;SDS_P1;SDS_P2;PMS_P1;PMS_P2;Temp;Humidity;BMP_temperature;BMP_pressure;BME280_temperature;BME280_humidity;BME280_pressure;Samples;Min_cycle;Max_cycle;Signal;HPM_P1;HPM_P2
2022/02/15 00:08:54;;;;;;;35.50;23.10;;;;;;;-0.34;67.80;98938.11;437832;1269;143762;-60
2022/02/15 00:19:02;;;;;;;31.10;18.90;;;;;;;-0.46;68.22;98934.15;433111;1270;197698;-59
2022/02/15 00:29:08;;;;;;;30.60;20.20;;;;;;;-0.56;68.35;98932.21;432095;1270;142402;-59
2022/02/15 00:39:14;;;;;;;31.90;18.90;;;;;;;-0.67;68.89;98930.47;430389;1270;142430;-61
2022/02/15 00:49:21;;;;;;;27.60;18.60;;;;;;;-0.77;69.03;98919.56;431244;1270;145514;-62
2022/02/15 00:59:27;;;;;;;25.10;18.30;;;;;;;-0.85;69.20;98915.99;435636;1269;141989;-61
2022/02/15 01:09:33;;;;;;;30.80;18.30;;;;;;;-0.88;69.18;98913.49;434902;1270;142173;-60
2022/02/15 01:19:39;;;;;;;29.90;18.80;;;;;;;-0.95;69.54;98907.53;433287;1269;141369;-61
2022/02/15 01:29:45;;;;;;;29.40;21.20;;;;;;;-1.09;69.73;98893.83;431258;1270;141092;-59
2022/02/15 01:39:51;;;;;;;34.00;19.60;;;;;;;-1.24;70.08;98893.52;439424;1270;141969;-59
2022/02/15 01:49:57;;;;;;;34.30;20.90;;;;;;;-1.35;70.60;98890.20;432663;1270;142870;-60
2022/02/15 02:00:04;;;;;;;34.30;21.20;;;;;;;-1.53;70.75;98888.44;436717;1269;142519;-59
2022/02/15 02:10:12;;;;;;;30.40;20.40;;;;;;;-1.57;71.31;98884.25;432967;1270;144359;-61
2022/02/15 02:20:18;;;;;;;37.90;21.80;;;;;;;-1.58;71.50;98883.77;434568;1270;142448;-63
2022/02/15 02:30:24;;;;;;;29.30;19.90;;;;;;;-1.67;71.66;98881.07;435062;1269;227931;-63
2022/02/15 02:40:30;;;;;;;36.90;21.40;;;;;;;-1.77;72.07;98883.04;432434;1268;141957;-62
2022/02/15 02:50:38;;;;;;;32.60;22.10;;;;;;;-1.83;72.47;98882.00;436827;1269;142478;-62
2022/02/15 03:00:43;;;;;;;35.40;23.10;;;;;;;-1.81;72.78;98881.95;436613;1270;143621;-62
2022/02/15 03:10:49;;;;;;;34.70;20.40;;;;;;;-1.72;73.26;98884.45;435024;1269;142238;-62
2022/02/15 03:20:55;;;;;;;38.30;22.00;;;;;;;-1.73;73.11;98887.91;430999;1270;143234;-62
2022/02/15 03:31:02;;;;;;;41.10;23.00;;;;;;;-1.90;73.29;98888.67;431959;1270;142161;-63
2022/02/15 03:51:31;;;;;;;37.00;24.50;;;;;;;-2.08;73.98;98883.77;430241;1270;141999;-62
2022/02/15 04:01:37;;;;;;;34.00;24.20;;;;;;;-2.12;74.10;98888.68;431078;1270;142692;-62
2022/02/15 04:11:43;;;;;;;34.40;23.30;;;;;;;-2.13;74.46;98891.77;433081;1270;141460;-62
2022/02/15 04:21:48;;;;;;;31.60;20.70;;;;;;;-2.05;74.67;98890.40;429806;1269;142479;-62
2022/02/15 04:31:55;;;;;;;34.20;24.20;;;;;;;-1.88;75.01;98894.11;432797;1270;143031;-62
2022/02/15 04:42:01;;;;;;;36.30;24.50;;;;;;;-1.61;74.82;98885.40;430521;1269;141968;-62
2022/02/15 04:52:08;;;;;;;37.70;24.70;;;;;;;-1.47;74.40;98898.08;431206;1270;142486;-64
2022/02/15 05:02:14;;;;;;;40.20;23.90;;;;;;;-1.46;74.51;98897.38;432000;1270;144623;-61
2022/02/15 05:12:20;;;;;;;34.60;21.80;;;;;;;-1.45;74.43;98897.33;434233;1270;143227;-62
2022/02/15 05:22:26;;;;;;;34.50;21.90;;;;;;;-1.56;74.40;98892.30;434531;1269;142236;-64
2022/02/15 05:32:32;;;;;;;36.60;23.60;;;;;;;-1.65;74.73;98878.97;433673;1268;142467;-65
2022/02/15 05:42:38;;;;;;;32.20;22.60;;;;;;;-1.70;74.95;98872.72;434318;1269;142435;-61
2022/02/15 05:52:44;;;;;;;31.50;20.60;;;;;;;-1.76;75.07;98890.06;442304;1269;141262;-63
2022/02/15 06:02:52;;;;;;;36.00;22.70;;;;;;;-1.81;75.12;98894.11;431689;1270;141089;-63
2022/02/15 06:12:58;;;;;;;33.10;22.60;;;;;;;-1.76;75.48;98909.96;437301;1269;145154;-62
2022/02/15 06:23:04;;;;;;;29.00;17.80;;;;;;;-1.58;75.59;98918.80;434912;1269;142236;-63
2022/02/15 06:33:10;;;;;;;37.60;23.10;;;;;;;-1.05;75.75;98926.19;437423;1270;141606;-63
2022/02/15 06:43:16;;;;;;;34.10;23.10;;;;;;;-0.16;75.02;98925.70;432950;1270;148620;-61
2022/02/15 06:53:22;;;;;;;36.80;22.70;;;;;;;0.78;74.07;98929.91;444687;1268;143282;-63
2022/02/15 07:03:45;;;;;;;42.10;24.40;;;;;;;1.33;73.02;98940.74;443106;1268;145250;-64
2022/02/15 07:13:52;;;;;;;41.50;28.30;;;;;;;1.82;72.38;98935.98;435896;1269;143873;-62
2022/02/15 07:23:58;;;;;;;38.70;29.70;;;;;;;5.34;71.23;98919.26;441738;1270;142452;-63
2022/02/15 07:34:03;;;;;;;37.80;25.80;;;;;;;9.93;65.49;98925.41;435099;1267;140955;-63
2022/02/15 07:44:09;;;;;;;29.10;22.10;;;;;;;10.88;61.75;98931.61;441685;1269;141554;-63
2022/02/15 07:54:15;;;;;;;30.20;22.10;;;;;;;13.00;57.71;98936.86;430485;1270;140754;-63
2022/02/15 08:04:21;;;;;;;31.30;22.10;;;;;;;10.90;57.04;98937.23;443126;1269;143035;-64
2022/02/15 08:14:26;;;;;;;29.10;21.70;;;;;;;9.07;57.41;98952.95;434911;1270;141685;-63
2022/02/15 08:24:32;;;;;;;31.80;21.90;;;;;;;7.69;58.37;98962.02;439199;1269;142302;-67
2022/02/15 08:34:39;;;;;;;29.60;21.90;;;;;;;9.96;58.28;98962.52;436707;1269;141174;-66
2022/02/15 08:44:45;;;;;;;21.70;18.30;;;;;;;11.76;54.70;98966.36;439435;1270;141992;-65
2022/02/15 08:54:52;;;;;;;32.70;21.80;;;;;;;9.85;54.90;98974.20;437691;1269;141245;-69
2022/02/15 09:04:58;;;;;;;32.10;21.30;;;;;;;8.21;55.99;98981.59;432946;1269;141088;-65
2022/02/15 09:15:06;;;;;;;29.70;20.90;;;;;;;7.12;57.21;98991.02;435707;1270;141312;-62
2022/02/15 09:25:12;;;;;;;31.30;19.70;;;;;;;6.25;58.38;98999.45;432859;1270;143881;-72
2022/02/15 09:35:18;;;;;;;30.50;20.90;;;;;;;5.77;60.01;99001.16;434429;1270;144014;-66
2022/02/15 09:45:24;;;;;;;28.80;19.50;;;;;;;6.20;60.68;99002.81;433369;1270;141930;-65
2022/02/15 09:55:30;;;;;;;26.50;18.70;;;;;;;6.69;60.27;98998.88;434293;1269;140401;-72
2022/02/15 10:05:37;;;;;;;30.50;20.90;;;;;;;6.95;60.17;99006.66;435623;1270;139941;-71
2022/02/15 10:15:45;;;;;;;25.80;18.50;;;;;;;7.54;59.87;99004.56;432313;1269;141203;-69
2022/02/15 10:25:52;;;;;;;24.60;18.50;;;;;;;8.03;59.10;99004.17;432369;1270;141772;-72
2022/02/15 10:36:00;;;;;;;30.40;19.10;;;;;;;7.99;58.91;98999.21;431460;1270;150986;-69
2022/02/15 10:46:10;;;;;;;;;;;;;;;7.52;58.98;99002.76;434413;1270;140974;-71
2022/02/15 10:56:16;;;;;;;33.00;18.70;;;;;;;6.99;59.66;99014.10;434235;1270;126503;-67
2022/02/15 11:06:23;;;;;;;25.40;17.00;;;;;;;6.83;60.06;99025.09;430890;1270;141989;-66
2022/02/15 11:16:34;;;;;;;25.90;16.00;;;;;;;6.96;60.44;99022.74;434184;1270;139812;-74
2022/02/15 11:26:43;;;;;;;21.00;16.00;;;;;;;7.35;60.26;99021.52;433829;1270;144564;-71
2022/02/15 11:36:51;;;;;;;25.70;16.10;;;;;;;7.75;59.89;99016.41;433794;1270;141449;-69
2022/02/15 11:47:11;;;;;;;23.60;17.00;;;;;;;8.04;59.24;99022.77;434279;1270;139746;-69
2022/02/15 11:57:17;;;;;;;25.90;15.10;;;;;;;8.05;59.47;99020.45;435762;1269;140761;-61
2022/02/15 12:07:28;;;;;;;18.60;13.90;;;;;;;8.01;59.26;99019.64;438013;1270;140520;-65
2022/02/15 12:17:39;;;;;;;21.90;14.50;;;;;;;7.90;59.56;99016.85;447553;1269;141494;-67
2022/02/15 12:27:46;;;;;;;23.00;15.40;;;;;;;7.84;59.88;99019.66;439841;1270;140864;-70
2022/02/15 12:37:53;;;;;;;21.60;16.20;;;;;;;8.00;59.69;99019.53;447532;1269;140646;-65
2022/02/15 12:48:00;;;;;;;25.70;14.20;;;;;;;8.26;59.86;99023.84;434849;1270;140924;-70
2022/02/15 12:58:07;;;;;;;21.80;15.00;;;;;;;7.84;59.67;99021.06;439378;1270;140970;-62
2022/02/15 13:08:19;;;;;;;19.30;14.90;;;;;;;7.38;60.56;99022.42;442891;1269;140884;-65
2022/02/15 13:18:25;;;;;;;18.90;14.00;;;;;;;7.12;61.37;99024.80;434549;1270;141390;-65
2022/02/15 13:28:42;;;;;;;20.70;15.20;;;;;;;7.48;61.62;99039.92;430899;1270;142374;-62
2022/02/15 13:38:48;;;;;;;24.40;15.40;;;;;;;7.63;61.56;99045.15;441265;1270;141288;-66
2022/02/15 13:48:54;;;;;;;25.80;17.20;;;;;;;7.57;61.66;99050.19;443231;1269;142650;-63
2022/02/15 13:59:05;;;;;;;19.60;14.60;;;;;;;7.46;62.06;99045.29;431545;1270;141124;-68
2022/02/15 14:09:16;;;;;;;27.10;15.30;;;;;;;7.47;62.09;99061.75;437105;1270;140902;-68
2022/02/15 14:19:22;;;;;;;;;;;;;;;7.32;62.59;99068.58;432732;1270;141044;-66
2022/02/15 14:29:28;;;;;;;22.20;15.80;;;;;;;7.33;62.98;99064.66;431318;1270;128706;-66
2022/02/15 14:39:34;;;;;;;28.90;17.10;;;;;;;7.18;63.22;99060.31;439837;1270;252839;-68
2022/02/15 14:49:40;;;;;;;23.40;15.80;;;;;;;7.06;63.26;99057.19;432923;1271;142139;-69
2022/02/15 14:59:46;;;;;;;28.20;17.30;;;;;;;6.93;63.65;99059.34;432081;1270;141700;-69
2022/02/15 15:09:52;;;;;;;27.70;17.70;;;;;;;6.85;64.04;99064.98;435012;1270;141662;-77
2022/02/15 15:19:58;;;;;;;30.30;18.70;;;;;;;6.76;64.49;99072.64;432040;1270;143729;-70
2022/02/15 15:30:06;;;;;;;30.20;19.90;;;;;;;6.67;64.85;99078.52;440357;1269;142712;-69
2022/02/15 15:40:11;;;;;;;;;;;;;;;6.61;65.20;99085.12;432223;1270;142056;-64
2022/02/15 15:50:19;;;;;;;23.70;16.60;;;;;;;6.52;65.47;99096.23;431315;1271;128682;-63
2022/02/15 16:00:24;;;;;;;;;;;;;;;6.39;65.90;99105.98;431763;1271;185467;-63
2022/02/15 16:10:50;;;;;;;28.70;19.10;;;;;;;6.29;66.26;99116.39;434161;1270;127656;-69
2022/02/15 16:20:56;;;;;;;35.50;21.00;;;;;;;6.20;66.49;99132.73;435693;1270;142555;-59
2022/02/15 16:31:20;;;;;;;45.10;28.00;;;;;;;6.10;66.81;99141.05;436571;1270;142178;-64
2022/02/15 16:41:26;;;;;;;45.10;29.80;;;;;;;6.01;67.16;99146.15;434055;1270;140807;-63
2022/02/15 16:51:32;;;;;;;43.30;30.10;;;;;;;5.96;67.45;99150.40;432719;1270;143806;-64
2022/02/15 17:01:38;;;;;;;37.40;25.30;;;;;;;5.91;67.61;99151.89;433477;1270;141003;-63
2022/02/15 17:11:44;;;;;;;43.50;28.20;;;;;;;5.81;67.81;99152.41;432134;1270;141547;-64
2022/02/15 17:21:50;;;;;;;39.90;24.60;;;;;;;5.66;68.09;99149.52;444926;1269;141767;-66
2022/02/15 17:31:56;;;;;;;42.10;27.80;;;;;;;5.32;68.46;99138.54;437722;1270;141605;-65
2022/02/15 17:42:02;;;;;;;69.40;43.70;;;;;;;4.94;69.05;99142.23;445246;1270;141592;-69
2022/02/15 17:52:08;;;;;;;76.40;45.80;;;;;;;4.63;69.61;99158.27;443048;1270;141304;-66
2022/02/15 18:02:14;;;;;;;76.60;45.90;;;;;;;4.26;69.93;99168.24;438034;1269;141214;-64
2022/02/15 18:12:20;;;;;;;68.70;42.40;;;;;;;3.88;70.47;99167.13;435090;1270;142854;-67
2022/02/15 18:22:27;;;;;;;71.20;47.60;;;;;;;3.45;70.98;99178.98;431218;1270;142397;-66
2022/02/15 18:32:36;;;;;;;70.10;41.90;;;;;;;3.06;71.56;99188.64;435674;1269;142069;-62
2022/02/15 18:42:42;;;;;;;68.60;42.90;;;;;;;2.78;72.11;99206.83;437304;1270;141219;-62
2022/02/15 18:52:48;;;;;;;60.70;41.50;;;;;;;2.50;72.75;99207.86;433550;1270;142352;-69
2022/02/15 19:02:54;;;;;;;63.30;38.40;;;;;;;2.27;73.20;99211.98;430855;1270;141290;-61
2022/02/15 19:13:00;;;;;;;73.60;45.50;;;;;;;2.05;73.70;99211.54;429933;1270;142218;-61
2022/02/15 19:23:08;;;;;;;61.20;41.30;;;;;;;1.90;74.59;99209.81;430477;1270;140910;-61
2022/02/15 19:33:14;;;;;;;63.70;41.30;;;;;;;1.77;74.69;99215.92;432488;1270;142373;-62
2022/02/15 19:43:21;;;;;;;68.90;43.90;;;;;;;1.60;74.78;99221.00;430365;1270;141114;-63
2022/02/15 19:53:28;;;;;;;67.40;41.70;;;;;;;1.40;75.20;99210.41;434749;1270;142180;-62
2022/02/15 20:03:34;;;;;;;72.60;44.20;;;;;;;1.27;75.42;99207.73;429641;1270;141493;-61
2022/02/15 20:13:40;;;;;;;72.30;46.40;;;;;;;1.21;76.07;99207.73;433184;1270;140719;-63
2022/02/15 20:23:47;;;;;;;70.90;43.80;;;;;;;1.28;76.91;99205.14;430847;1270;141349;-61
2022/02/15 20:33:53;;;;;;;70.80;44.40;;;;;;;1.50;77.31;99207.69;430622;1270;143661;-62
2022/02/15 20:43:59;;;;;;;80.50;49.40;;;;;;;1.63;76.92;99209.33;430572;1270;141542;-63
2022/02/15 20:54:05;;;;;;;69.80;47.00;;;;;;;1.73;76.83;99207.96;436005;1268;142024;-61
2022/02/15 21:04:11;;;;;;;62.70;42.20;;;;;;;1.88;76.90;99204.68;430612;1270;142280;-61
2022/02/15 21:14:17;;;;;;;64.00;38.90;;;;;;;1.98;76.63;99197.30;430678;1270;141060;-61
2022/02/15 21:24:23;;;;;;;63.60;40.90;;;;;;;1.97;76.42;99187.98;431185;1270;142457;-67
2022/02/15 21:34:29;;;;;;;60.50;38.10;;;;;;;2.06;76.80;99175.58;431431;1270;141715;-66
2022/02/15 21:44:40;;;;;;;52.80;33.70;;;;;;;2.16;77.03;99176.09;433428;1270;141906;-68
2022/02/15 21:54:45;;;;;;;60.40;37.60;;;;;;;2.26;77.17;99175.73;431778;1270;141604;-65
2022/02/15 22:04:51;;;;;;;58.90;35.50;;;;;;;2.34;77.13;99178.04;433397;1269;142511;-78
2022/02/15 22:14:58;;;;;;;67.10;41.50;;;;;;;2.43;77.32;99171.17;433352;1270;141619;-64
2022/02/15 22:25:06;;;;;;;55.20;34.70;;;;;;;2.56;77.41;99166.69;432150;1270;141410;-68
2022/02/15 22:35:13;;;;;;;53.60;32.60;;;;;;;2.67;77.64;99160.42;432416;1270;142229;-70
2022/02/15 22:45:19;;;;;;;44.70;29.60;;;;;;;2.71;77.50;99155.41;432749;1270;141127;-68
2022/02/15 22:55:25;;;;;;;41.70;27.00;;;;;;;2.67;77.57;99157.65;433155;1270;142578;-71
2022/02/15 23:26:19;;;;;;;36.30;24.50;;;;;;;2.46;78.17;99150.84;432209;1270;144883;-72
2022/02/15 23:36:25;;;;;;;33.50;21.70;;;;;;;2.60;78.41;99135.62;431280;1270;141877;-69
2022/02/15 23:46:32;;;;;;;31.50;22.20;;;;;;;2.74;78.53;99124.54;430693;1270;141398;-67
2022/02/15 23:56:37;;;;;;;31.30;22.30;;;;;;;2.73;78.03;99117.64;430385;1270;142176;-70
